createdAt,value
2018-11-21T00:00:56.475Z,1.40
2018-11-21T00:03:24.794Z,1.50
2018-11-21T00:05:53.124Z,1.50
2018-11-21T00:08:21.445Z,1.60
2018-11-21T00:10:49.764Z,1.60
2018-11-21T00:13:18.075Z,1.70
2018-11-21T00:15:46.422Z,1.70
2018-11-21T00:18:14.725Z,1.70
2018-11-21T00:20:43.068Z,1.80
2018-11-21T00:23:11.388Z,1.80
2018-11-21T00:25:39.696Z,1.80
2018-11-21T00:28:08.028Z,1.90
2018-11-21T00:30:36.365Z,1.90
2018-11-21T00:33:04.684Z,1.90
2018-11-21T00:35:33.008Z,1.90
2018-11-21T00:38:01.362Z,1.90
2018-11-21T00:40:29.663Z,1.90
2018-11-21T00:42:58.004Z,1.90
2018-11-21T00:45:26.315Z,1.80
2018-11-21T00:47:54.644Z,1.80
2018-11-21T00:50:22.971Z,1.80
2018-11-21T00:52:51.292Z,1.80
2018-11-21T00:55:19.597Z,1.80
2018-11-21T00:57:47.955Z,1.70
2018-11-21T01:00:16.257Z,1.70
2018-11-21T01:02:44.603Z,1.60
2018-11-21T01:05:12.933Z,1.50
2018-11-21T01:07:41.228Z,1.50
2018-11-21T01:10:09.560Z,1.40
2018-11-21T01:12:37.871Z,1.30
2018-11-21T01:15:06.536Z,1.10
2018-11-21T01:17:34.837Z,1.10
2018-11-21T01:20:03.173Z,1.10
2018-11-21T01:22:31.552Z,1.10
2018-11-21T01:24:59.850Z,1.10
2018-11-21T01:27:28.187Z,1.10
2018-11-21T01:29:56.543Z,1.00
2018-11-21T01:32:24.841Z,1.00
2018-11-21T01:34:53.211Z,1.00
2018-11-21T01:37:21.558Z,1.00
2018-11-21T01:39:49.863Z,1.00
2018-11-21T01:42:18.190Z,0.90
2018-11-21T01:44:46.533Z,0.90
2018-11-21T01:47:14.865Z,0.90
2018-11-21T01:49:43.216Z,0.90
2018-11-21T01:52:11.567Z,0.80
2018-11-21T01:54:39.897Z,0.80
2018-11-21T01:57:08.219Z,0.80
2018-11-21T01:59:36.558Z,0.80
2018-11-21T02:02:04.920Z,0.80
2018-11-21T02:04:33.259Z,0.90
2018-11-21T02:07:01.582Z,0.90
2018-11-21T02:09:29.922Z,0.90
2018-11-21T02:11:58.235Z,1.00
2018-11-21T02:14:26.575Z,1.00
2018-11-21T02:16:54.875Z,1.00
2018-11-21T02:19:23.226Z,1.00
2018-11-21T02:21:51.528Z,1.00
2018-11-21T02:24:19.850Z,1.00
2018-11-21T02:26:48.203Z,1.00
2018-11-21T02:29:16.497Z,1.00
2018-11-21T02:31:44.828Z,1.00
2018-11-21T02:34:13.152Z,1.00
2018-11-21T02:36:41.489Z,1.00
2018-11-21T02:39:10.681Z,1.10
2018-11-21T02:41:39.037Z,1.00
2018-11-21T02:44:07.372Z,1.00
2018-11-21T02:46:35.719Z,1.00
2018-11-21T02:49:04.156Z,0.90
2018-11-21T02:51:32.427Z,0.90
2018-11-21T02:54:00.733Z,0.90
2018-11-21T02:57:26.512Z,0.90
2018-11-21T03:00:18.204Z,0.90
2018-11-21T03:02:46.509Z,0.80
2018-11-21T03:05:14.883Z,0.80
2018-11-21T03:07:53.688Z,0.80
2018-11-21T03:10:23.017Z,0.80
2018-11-21T03:12:51.385Z,0.70
2018-11-21T03:15:19.933Z,0.70
2018-11-21T03:17:48.358Z,0.70
2018-11-21T03:20:17.005Z,0.70
2018-11-21T03:22:45.354Z,0.70
2018-11-21T03:25:13.865Z,0.70
2018-11-21T03:27:42.194Z,0.60
2018-11-21T03:30:11.389Z,0.60
2018-11-21T03:32:40.464Z,0.60
2018-11-21T03:35:08.854Z,0.70
2018-11-21T03:37:37.400Z,0.70
2018-11-21T03:40:08.475Z,0.70
2018-11-21T03:42:36.777Z,0.70
2018-11-21T03:45:06.564Z,0.70
2018-11-21T03:47:34.910Z,0.70
2018-11-21T03:50:03.224Z,0.70
2018-11-21T03:52:31.551Z,0.80
2018-11-21T03:54:59.875Z,0.80
2018-11-21T03:57:28.238Z,0.80
2018-11-21T03:59:56.565Z,0.80
2018-11-21T04:02:24.891Z,0.80
2018-11-21T04:04:53.185Z,0.90
2018-11-21T04:07:21.552Z,1.00
2018-11-21T04:09:49.861Z,1.00
2018-11-21T04:12:18.230Z,1.10
2018-11-21T04:14:46.539Z,1.10
2018-11-21T04:17:14.862Z,1.20
2018-11-21T04:19:43.168Z,1.20
2018-11-21T04:22:11.459Z,1.30
2018-11-21T04:24:39.792Z,1.30
2018-11-21T04:27:08.095Z,1.30
2018-11-21T04:29:36.410Z,1.30
2018-11-21T04:32:04.735Z,1.30
2018-11-21T04:34:33.064Z,1.30
2018-11-21T04:37:01.440Z,1.30
2018-11-21T04:39:29.743Z,1.30
2018-11-21T04:41:58.069Z,1.30
2018-11-21T04:44:26.378Z,1.20
2018-11-21T04:46:54.684Z,1.20
2018-11-21T04:49:23.035Z,1.20
2018-11-21T04:51:51.349Z,1.10
2018-11-21T04:54:19.661Z,1.00
2018-11-21T04:56:47.975Z,1.00
2018-11-21T04:59:16.311Z,1.00
2018-11-21T05:01:44.621Z,0.90
2018-11-21T05:04:12.954Z,1.00
2018-11-21T05:06:41.297Z,0.90
2018-11-21T05:09:10.997Z,1.00
2018-11-21T05:11:39.326Z,1.00
2018-11-21T05:14:10.774Z,0.90
2018-11-21T05:16:39.132Z,0.90
2018-11-21T05:19:07.463Z,0.90
2018-11-21T05:21:35.810Z,0.90
2018-11-21T05:24:04.112Z,0.90
2018-11-21T05:26:32.429Z,1.00
2018-11-21T05:29:00.783Z,0.90
2018-11-21T05:31:29.075Z,0.90
2018-11-21T05:33:57.379Z,0.90
2018-11-21T05:36:25.708Z,0.90
2018-11-21T05:38:54.028Z,0.80
2018-11-21T05:41:22.397Z,0.80
2018-11-21T05:43:50.721Z,0.70
2018-11-21T05:46:19.066Z,0.70
2018-11-21T05:48:47.358Z,0.60
2018-11-21T05:51:15.695Z,0.60
2018-11-21T05:53:45.471Z,0.60
2018-11-21T05:56:13.797Z,0.60
2018-11-21T05:58:42.127Z,0.60
2018-11-21T06:01:10.433Z,0.60
2018-11-21T06:03:38.760Z,0.60
2018-11-21T06:06:10.097Z,0.60
2018-11-21T06:08:35.383Z,0.60
2018-11-21T06:11:03.708Z,0.60
2018-11-21T06:13:32.128Z,0.60
2018-11-21T06:16:00.469Z,0.60
2018-11-21T06:18:28.778Z,0.60
2018-11-21T06:20:57.106Z,0.60
2018-11-21T06:23:25.421Z,0.40
2018-11-21T06:25:53.768Z,0.40
2018-11-21T06:28:22.096Z,0.50
2018-11-21T06:30:50.444Z,0.50
2018-11-21T06:33:18.755Z,0.50
2018-11-21T06:35:47.063Z,0.50
2018-11-21T06:38:15.411Z,0.50
2018-11-21T06:40:43.729Z,0.50
2018-11-21T06:43:12.135Z,0.50
2018-11-21T06:45:40.479Z,0.50
2018-11-21T06:48:08.749Z,0.50
2018-11-21T06:50:37.031Z,0.60
2018-11-21T06:53:05.921Z,0.60
2018-11-21T06:55:34.258Z,0.80
2018-11-21T06:58:02.591Z,0.90
2018-11-21T07:00:30.911Z,0.90
2018-11-21T07:03:00.842Z,0.90
2018-11-21T07:05:27.555Z,0.90
2018-11-21T07:07:59.669Z,0.90
2018-11-21T07:10:28.628Z,1.00
2018-11-21T07:12:56.963Z,1.00
2018-11-21T07:15:25.277Z,1.00
2018-11-21T07:17:53.605Z,1.00
2018-11-21T07:20:22.062Z,1.00
2018-11-21T07:22:50.375Z,1.00
2018-11-21T07:25:20.467Z,1.00
2018-11-21T07:27:48.787Z,1.00
2018-11-21T07:30:17.711Z,1.10
2018-11-21T07:32:46.087Z,1.10
2018-11-21T07:35:18.069Z,1.10
2018-11-21T07:37:43.529Z,1.20
2018-11-21T07:40:13.265Z,1.10
2018-11-21T07:42:41.668Z,1.20
2018-11-21T07:45:14.433Z,1.20
2018-11-21T07:47:43.453Z,1.20
2018-11-21T07:50:14.259Z,1.20
2018-11-21T07:52:42.889Z,1.20
2018-11-21T07:55:11.869Z,1.20
2018-11-21T07:57:44.883Z,1.20
2018-11-21T08:01:20.048Z,1.10
2018-11-21T08:03:52.900Z,1.10
2018-11-21T08:09:32.281Z,1.20
2018-11-21T08:12:19.757Z,1.20
2018-11-21T08:15:25.343Z,1.30
2018-11-21T08:18:15.187Z,1.20
2018-11-21T08:21:17.694Z,1.20
2018-11-21T08:24:10.739Z,1.30
2018-11-21T08:27:07.049Z,1.40
2018-11-21T08:29:35.415Z,1.50
2018-11-21T08:32:03.671Z,1.60
2018-11-21T08:34:31.986Z,1.70
2018-11-21T08:37:00.302Z,1.80
2018-11-21T08:39:28.606Z,2.00
2018-11-21T08:41:56.962Z,2.20
2018-11-21T08:44:25.306Z,2.30
2018-11-21T08:46:53.625Z,2.50
2018-11-21T08:49:22.000Z,2.60
2018-11-21T08:51:50.313Z,2.60
2018-11-21T08:54:18.678Z,2.70
2018-11-21T08:56:47.029Z,2.70
2018-11-21T08:59:15.413Z,2.80
2018-11-21T09:01:43.776Z,2.90
2018-11-21T09:04:12.141Z,3.00
2018-11-21T09:06:40.472Z,3.10
2018-11-21T09:09:09.893Z,3.20
2018-11-21T09:11:38.270Z,3.30
2018-11-21T09:14:06.633Z,3.30
2018-11-21T09:16:34.956Z,3.30
2018-11-21T09:19:03.296Z,3.30
2018-11-21T09:21:31.596Z,3.30
2018-11-21T09:24:00.020Z,3.30
2018-11-21T09:26:28.321Z,3.30
2018-11-21T09:28:56.645Z,3.40
2018-11-21T09:31:24.956Z,3.40
2018-11-21T09:33:53.273Z,3.40
2018-11-21T09:36:21.621Z,3.60
2018-11-21T09:38:49.939Z,3.60
2018-11-21T09:41:18.285Z,3.60
2018-11-21T09:43:46.617Z,3.60
2018-11-21T09:46:17.291Z,3.50
2018-11-21T09:48:43.354Z,3.50
2018-11-21T09:51:11.674Z,3.50
2018-11-21T09:53:39.998Z,3.50
2018-11-21T09:56:08.335Z,3.40
2018-11-21T09:58:36.760Z,3.40
2018-11-21T10:01:41.989Z,3.30
2018-11-21T10:04:10.362Z,3.40
2018-11-21T10:06:40.825Z,3.40
2018-11-21T10:09:12.582Z,3.40
2018-11-21T10:11:40.920Z,3.30
2018-11-21T10:14:09.266Z,3.30
2018-11-21T10:16:37.614Z,3.30
2018-11-21T10:19:06.202Z,3.40
2018-11-21T10:21:35.517Z,3.40
2018-11-21T10:24:03.859Z,3.30
2018-11-21T10:26:32.187Z,3.30
2018-11-21T10:29:00.538Z,3.30
2018-11-21T10:31:28.879Z,3.30
2018-11-21T10:33:57.214Z,3.30
2018-11-21T10:36:25.514Z,3.40
2018-11-21T10:38:53.952Z,3.40
2018-11-21T10:41:22.284Z,3.50
2018-11-21T10:43:50.656Z,3.50
2018-11-21T10:46:19.002Z,3.60
2018-11-21T10:48:47.306Z,3.60
2018-11-21T10:51:15.641Z,3.50
2018-11-21T10:53:43.964Z,3.50
2018-11-21T10:56:12.297Z,3.50
2018-11-21T10:58:40.622Z,3.50
2018-11-21T11:01:26.653Z,3.50
2018-11-21T11:04:14.159Z,3.50
2018-11-21T11:07:10.888Z,3.60
2018-11-21T11:09:49.342Z,3.60
2018-11-21T11:12:42.552Z,3.70
2018-11-21T11:15:38.964Z,3.80
2018-11-21T11:18:35.806Z,3.80
2018-11-21T11:21:21.959Z,3.80
2018-11-21T11:24:09.472Z,3.80
2018-11-21T11:27:05.906Z,3.80
2018-11-21T11:29:40.461Z,3.80
2018-11-21T11:32:26.626Z,3.90
2018-11-21T11:35:12.697Z,4.00
2018-11-21T11:37:58.902Z,4.00
2018-11-21T11:40:44.961Z,4.10
2018-11-21T11:43:31.204Z,4.10
2018-11-21T11:46:21.499Z,4.10
2018-11-21T11:49:11.608Z,4.10
2018-11-21T11:51:49.249Z,4.00
2018-11-21T11:54:35.636Z,3.90
2018-11-21T11:57:12.928Z,3.80
2018-11-21T12:00:00.418Z,3.70
2018-11-21T12:02:47.940Z,3.60
2018-11-21T12:05:27.310Z,3.60
2018-11-21T12:08:32.961Z,3.60
2018-11-21T12:11:38.530Z,3.60
2018-11-21T12:14:25.181Z,3.60
2018-11-21T12:17:18.463Z,3.60
2018-11-21T12:19:58.638Z,3.60
2018-11-21T12:22:46.166Z,3.60
2018-11-21T12:25:45.992Z,3.70
2018-11-21T12:28:32.306Z,3.70
2018-11-21T12:31:19.818Z,3.80
2018-11-21T12:34:16.153Z,3.80
2018-11-21T12:36:59.970Z,3.80
2018-11-21T12:39:56.638Z,3.80
2018-11-21T12:42:41.070Z,3.80
2018-11-21T12:45:27.807Z,3.80
2018-11-21T12:48:13.966Z,3.90
2018-11-21T12:51:02.535Z,3.90
2018-11-21T12:53:52.564Z,4.00
2018-11-21T12:56:45.924Z,4.00
2018-11-21T12:59:33.409Z,4.00
2018-11-21T13:02:32.876Z,4.00
2018-11-21T13:05:09.882Z,4.00
2018-11-21T13:07:55.922Z,4.00
2018-11-21T13:10:41.834Z,4.00
2018-11-21T13:13:27.737Z,4.10
2018-11-21T13:16:07.407Z,4.10
2018-11-21T13:18:53.005Z,4.10
2018-11-21T13:21:40.486Z,4.10
2018-11-21T13:24:30.775Z,4.10
2018-11-21T13:27:27.219Z,4.10
2018-11-21T13:30:30.039Z,4.10
2018-11-21T13:33:17.474Z,4.00
2018-11-21T13:35:59.857Z,4.00
2018-11-21T13:38:45.824Z,4.00
2018-11-21T13:41:32.151Z,4.00
2018-11-21T13:44:13.139Z,4.00
2018-11-21T13:47:05.096Z,4.00
2018-11-21T13:49:52.610Z,3.90
2018-11-21T13:52:40.094Z,3.90
2018-11-21T13:55:08.439Z,3.90
2018-11-21T13:57:36.744Z,3.80
2018-11-21T14:00:06.805Z,3.80
2018-11-21T14:02:35.174Z,3.70
2018-11-21T14:05:03.495Z,3.70
2018-11-21T14:07:31.862Z,3.80
2018-11-21T14:10:00.206Z,3.80
2018-11-21T14:12:28.517Z,3.70
2018-11-21T14:14:56.850Z,3.70
2018-11-21T14:17:27.743Z,3.70
2018-11-21T14:19:53.555Z,3.70
2018-11-21T14:22:21.883Z,3.70
2018-11-21T14:24:50.306Z,3.60
2018-11-21T14:27:18.619Z,3.60
2018-11-21T14:29:47.043Z,3.50
2018-11-21T14:32:15.409Z,3.50
2018-11-21T14:34:43.743Z,3.50
2018-11-21T14:37:12.125Z,3.50
2018-11-21T14:39:40.449Z,3.50
2018-11-21T14:42:08.775Z,3.40
2018-11-21T14:44:37.079Z,3.40
2018-11-21T14:47:08.154Z,3.30
2018-11-21T14:49:36.540Z,3.30
2018-11-21T14:52:05.014Z,3.30
2018-11-21T14:54:33.317Z,3.30
2018-11-21T14:57:01.653Z,3.30
2018-11-21T14:59:30.007Z,3.30
2018-11-21T15:01:58.358Z,3.30
2018-11-21T15:04:26.703Z,3.30
2018-11-21T15:06:55.046Z,3.30
2018-11-21T15:09:23.426Z,3.30
2018-11-21T15:11:52.013Z,3.30
2018-11-21T15:14:20.479Z,3.30
2018-11-21T15:16:48.829Z,3.20
2018-11-21T15:19:17.123Z,3.20
2018-11-21T15:21:45.508Z,3.20
2018-11-21T15:24:13.888Z,3.20
2018-11-21T15:26:42.222Z,3.20
2018-11-21T15:29:10.873Z,3.20
2018-11-21T15:31:39.187Z,3.20
2018-11-21T15:34:07.554Z,3.20
2018-11-21T15:36:35.909Z,3.10
2018-11-21T15:39:06.886Z,3.20
2018-11-21T15:41:35.196Z,3.20
2018-11-21T15:44:03.548Z,3.10
2018-11-21T15:46:32.000Z,3.10
2018-11-21T15:49:00.564Z,3.10
2018-11-21T15:51:28.928Z,3.10
2018-11-21T15:53:57.312Z,3.10
2018-11-21T15:56:25.678Z,3.10
2018-11-21T15:58:53.992Z,3.10
2018-11-21T16:01:22.357Z,3.00
2018-11-21T16:03:50.696Z,3.00
2018-11-21T16:06:19.052Z,3.10
2018-11-21T16:08:48.375Z,3.10
2018-11-21T16:11:15.712Z,3.20
2018-11-21T16:13:44.058Z,3.30
2018-11-21T16:16:12.405Z,3.30
2018-11-21T16:18:40.767Z,3.40
2018-11-21T16:21:09.077Z,3.40
2018-11-21T16:23:37.398Z,3.40
2018-11-21T16:26:05.769Z,3.40
2018-11-21T16:28:34.072Z,3.30
2018-11-21T16:31:02.424Z,3.30
2018-11-21T16:33:30.733Z,3.30
2018-11-21T16:35:59.092Z,3.30
2018-11-21T16:38:27.402Z,3.30
2018-11-21T16:40:55.731Z,3.30
2018-11-21T16:43:24.074Z,3.30
2018-11-21T16:45:54.195Z,3.30
2018-11-21T16:48:22.548Z,3.30
2018-11-21T16:50:50.886Z,3.20
2018-11-21T16:53:19.192Z,3.20
2018-11-21T16:55:47.539Z,3.20
2018-11-21T16:58:15.840Z,3.20
2018-11-21T17:00:44.160Z,3.20
2018-11-21T17:03:12.509Z,3.20
2018-11-21T17:05:40.862Z,3.20
2018-11-21T17:08:09.167Z,3.20
2018-11-21T17:10:37.520Z,3.20
2018-11-21T17:13:06.301Z,3.20
2018-11-21T17:15:35.313Z,3.20
2018-11-21T17:18:03.651Z,3.20
2018-11-21T17:20:33.996Z,3.20
2018-11-21T17:23:02.648Z,3.20
2018-11-21T17:25:35.524Z,3.20
2018-11-21T17:28:03.923Z,3.20
2018-11-21T17:30:32.295Z,3.20
2018-11-21T17:33:00.613Z,3.10
2018-11-21T17:35:29.055Z,3.10
2018-11-21T17:38:01.872Z,3.10
2018-11-21T17:40:28.999Z,3.10
2018-11-21T17:42:57.774Z,3.10
2018-11-21T17:45:26.132Z,3.00
2018-11-21T17:47:54.477Z,3.10
2018-11-21T17:50:23.854Z,3.00
2018-11-21T17:52:53.544Z,3.00
2018-11-21T17:55:23.699Z,3.00
2018-11-21T17:57:52.067Z,3.00
2018-11-21T18:00:21.861Z,3.00
2018-11-21T18:02:50.259Z,3.00
2018-11-21T18:05:20.296Z,3.00
2018-11-21T18:07:48.658Z,3.00
2018-11-21T18:10:18.334Z,3.00
2018-11-21T18:12:47.287Z,3.00
2018-11-21T18:15:16.337Z,3.10
2018-11-21T18:17:45.672Z,3.20
2018-11-21T18:20:14.568Z,3.30
2018-11-21T18:22:43.533Z,3.30
2018-11-21T18:25:14.479Z,3.40
2018-11-21T18:27:42.984Z,3.40
2018-11-21T18:30:13.380Z,3.30
2018-11-21T18:32:42.875Z,3.30
2018-11-21T18:35:12.997Z,3.20
2018-11-21T18:37:41.454Z,3.10
2018-11-21T18:40:12.749Z,3.20
2018-11-21T18:42:42.267Z,3.20
2018-11-21T18:45:15.071Z,3.20
2018-11-21T18:47:44.217Z,3.10
2018-11-21T18:50:14.003Z,3.10
2018-11-21T18:52:42.935Z,3.10
2018-11-21T18:55:13.737Z,3.10
2018-11-21T18:58:27.512Z,3.00
2018-11-21T19:00:56.117Z,3.10
2018-11-21T19:03:24.521Z,3.00
2018-11-21T19:05:52.843Z,3.00
2018-11-21T19:08:21.286Z,3.00
2018-11-21T19:10:50.195Z,3.00
2018-11-21T19:13:18.506Z,2.90
2018-11-21T19:15:46.868Z,2.90
2018-11-21T19:18:15.208Z,2.90
2018-11-21T19:20:43.582Z,2.90
2018-11-21T19:23:11.917Z,2.90
2018-11-21T19:25:40.260Z,2.80
2018-11-21T19:28:08.601Z,2.90
2018-11-21T19:30:36.936Z,2.80
2018-11-21T19:33:05.616Z,2.90
2018-11-21T19:35:33.949Z,2.80
2018-11-21T19:38:02.310Z,2.90
2018-11-21T19:40:30.635Z,2.80
2018-11-21T19:42:58.987Z,2.80
2018-11-21T19:45:27.302Z,2.80
2018-11-21T19:47:55.651Z,2.80
2018-11-21T19:50:23.980Z,2.80
2018-11-21T19:52:52.548Z,2.80
2018-11-21T19:55:25.536Z,2.80
2018-11-21T19:57:53.895Z,2.80
2018-11-21T20:00:26.365Z,2.80
2018-11-21T20:02:57.825Z,2.80
2018-11-21T20:05:26.142Z,2.80
2018-11-21T20:07:54.492Z,2.80
2018-11-21T20:10:23.492Z,2.80
2018-11-21T20:12:51.808Z,2.80
2018-11-21T20:15:21.808Z,2.80
2018-11-21T20:17:51.916Z,2.80
2018-11-21T20:20:20.883Z,2.80
2018-11-21T20:22:49.907Z,2.80
2018-11-21T20:25:19.502Z,2.80
2018-11-21T20:27:47.870Z,2.80
2018-11-21T20:30:18.479Z,2.80
2018-11-21T20:32:46.829Z,2.80
2018-11-21T20:35:15.639Z,2.80
2018-11-21T20:37:44.563Z,2.80
2018-11-21T20:40:21.423Z,2.80
2018-11-21T20:42:50.343Z,2.80
2018-11-21T20:45:20.119Z,2.80
2018-11-21T20:47:49.444Z,2.80
2018-11-21T20:50:17.835Z,2.70
2018-11-21T20:52:46.887Z,2.70
2018-11-21T20:55:15.817Z,2.70
2018-11-21T20:57:44.538Z,2.70
2018-11-21T21:00:15.272Z,2.70
2018-11-21T21:02:43.634Z,2.70
2018-11-21T21:05:13.423Z,2.70
2018-11-21T21:07:42.690Z,2.70
2018-11-21T21:10:13.177Z,2.70
2018-11-21T21:12:41.527Z,2.70
2018-11-21T21:15:10.727Z,2.70
2018-11-21T21:17:39.790Z,2.70
2018-11-21T21:20:12.486Z,2.70
2018-11-21T21:22:40.932Z,2.70
2018-11-21T21:25:11.829Z,2.70
2018-11-21T21:27:40.356Z,2.70
2018-11-21T21:30:14.497Z,2.70
2018-11-21T21:32:44.735Z,2.70
2018-11-21T21:35:13.722Z,2.70
2018-11-21T21:37:42.089Z,2.70
2018-11-21T21:40:12.505Z,2.70
2018-11-21T21:42:41.209Z,2.70
2018-11-21T21:45:11.729Z,2.70
2018-11-21T21:47:41.765Z,2.70
2018-11-21T21:50:09.638Z,2.70
2018-11-21T21:52:37.974Z,2.60
2018-11-21T21:55:07.732Z,2.70
2018-11-21T21:57:36.066Z,2.70
2018-11-21T22:00:07.795Z,2.70
2018-11-21T22:02:36.130Z,2.70
2018-11-21T22:05:04.704Z,2.60
2018-11-21T22:07:33.045Z,2.70
2018-11-21T22:10:01.344Z,2.70
2018-11-21T22:12:29.704Z,2.70
2018-11-21T22:14:58.022Z,2.70
2018-11-21T22:17:26.370Z,2.70
2018-11-21T22:19:54.700Z,2.70
2018-11-21T22:22:23.008Z,2.70
2018-11-21T22:24:51.347Z,2.70
2018-11-21T22:27:19.650Z,2.70
2018-11-21T22:29:47.976Z,2.70
2018-11-21T22:32:16.279Z,2.70
2018-11-21T22:34:44.564Z,2.70
2018-11-21T22:37:12.895Z,2.70
2018-11-21T22:39:41.204Z,2.70
2018-11-21T22:42:09.538Z,2.70
2018-11-21T22:44:37.838Z,2.70
2018-11-21T22:47:06.197Z,2.70
2018-11-21T22:49:34.513Z,2.70
2018-11-21T22:52:02.858Z,2.70
2018-11-21T22:54:31.178Z,2.70
2018-11-21T22:56:59.572Z,2.70
2018-11-21T22:59:27.897Z,2.70
2018-11-21T23:01:56.260Z,2.70
2018-11-21T23:04:24.604Z,2.70
2018-11-21T23:06:52.892Z,2.70
2018-11-21T23:09:21.349Z,2.70
2018-11-21T23:11:49.710Z,2.70
2018-11-21T23:14:18.022Z,2.70
2018-11-21T23:16:46.346Z,2.60
2018-11-21T23:19:14.668Z,2.70
2018-11-21T23:21:43.079Z,2.60
